Time;durP1;ratioP1;P1;durP2;ratioP2;P2;SDS_P1;SDS_P2;PMS_P1;PMS_P2;Temp;Humidity;BMP_temperature;BMP_pressure;BME280_temperature;BME280_humidity;BME280_pressure;Samples;Min_cycle;Max_cycle;Signal;HPM_P1;HPM_P2
2022/08/25 00:01:48;;;;;;;6.75;6.05;;;;;;;;;;6244799;23;20004;-77
2022/08/25 00:04:15;;;;;;;8.40;5.85;;;;;;;;;;6245114;23;20004;-77
2022/08/25 00:06:43;;;;;;;8.30;6.13;;;;;;;;;;6244814;23;20067;-76
2022/08/25 00:09:10;;;;;;;7.75;5.90;;;;;;;;;;6245049;23;20007;-76
2022/08/25 00:11:37;;;;;;;6.72;4.85;;;;;;;;;;6244747;23;20000;-76
2022/08/25 00:14:05;;;;;;;8.43;5.40;;;;;;;;;;6244941;22;20007;-77
2022/08/25 00:16:32;;;;;;;6.53;5.22;;;;;;;;;;6245042;23;20024;-76
2022/08/25 00:18:59;;;;;;;8.50;7.05;;;;;;;;;;6244772;22;20079;-76
2022/08/25 00:21:26;;;;;;;18.63;16.75;;;;;;;;;;6245053;23;20004;-76
2022/08/25 00:23:52;;;;;;;7.25;6.55;;;;;;;;;;6244889;23;20001;-76
2022/08/25 00:26:19;;;;;;;6.78;5.38;;;;;;;;;;6244497;23;20019;-76
2022/08/25 00:28:45;;;;;;;6.43;5.45;;;;;;;;;;6244527;23;20003;-76
2022/08/25 00:31:30;;;;;;;6.10;5.50;;;;;;;;;;6244748;23;20063;-76
2022/08/25 00:33:56;;;;;;;8.68;5.45;;;;;;;;;;6244886;23;20058;-76
2022/08/25 00:36:22;;;;;;;8.85;5.85;;;;;;;;;;6244682;23;20442;-76
2022/08/25 00:38:48;;;;;;;7.57;5.07;;;;;;;;;;6244848;23;20008;-76
2022/08/25 00:41:17;;;;;;;7.30;5.93;;;;;;;;;;6244711;22;20000;-76
2022/08/25 00:43:44;;;;;;;6.38;5.30;;;;;;;;;;6244716;23;20004;-76
2022/08/25 00:46:12;;;;;;;7.40;5.70;;;;;;;;;;6244820;22;19996;-76
2022/08/25 00:48:39;;;;;;;6.85;5.10;;;;;;;;;;6244465;23;20015;-76
2022/08/25 00:51:07;;;;;;;6.70;5.97;;;;;;;;;;6244997;22;20000;-76
2022/08/25 00:53:33;;;;;;;7.40;5.72;;;;;;;;;;6244873;22;20031;-77
2022/08/25 00:56:00;;;;;;;6.78;5.57;;;;;;;;;;6244685;23;20000;-76
2022/08/25 00:58:27;;;;;;;8.38;5.72;;;;;;;;;;6244484;23;20011;-76
2022/08/25 01:00:54;;;;;;;5.72;4.95;;;;;;;;;;6244866;23;20044;-76
2022/08/25 01:03:21;;;;;;;6.88;5.22;;;;;;;;;;6244445;23;20007;-76
2022/08/25 01:05:48;;;;;;;7.40;5.97;;;;;;;;;;6244953;23;20023;-76
2022/08/25 01:08:14;;;;;;;9.73;5.47;;;;;;;;;;6244620;23;20007;-76
2022/08/25 01:10:42;;;;;;;8.43;6.03;;;;;;;;;;6244358;23;20505;-76
2022/08/25 01:13:27;;;;;;;5.93;5.15;;;;;;;;;;6244755;23;20004;-76
2022/08/25 01:15:53;;;;;;;;;;;;;;;;;;6245177;23;20042;-76
2022/08/25 01:18:19;;;;;;;6.68;5.57;;;;;;;;;;6244187;22;19908;-76
2022/08/25 01:20:49;;;;;;;7.72;6.00;;;;;;;;;;6244669;23;20004;-77
2022/08/25 01:23:15;;;;;;;7.32;5.45;;;;;;;;;;6244248;23;20004;-76
2022/08/25 01:25:41;;;;;;;6.82;6.13;;;;;;;;;;6244849;23;20083;-76
2022/08/25 01:28:07;;;;;;;7.00;5.63;;;;;;;;;;6244196;23;20448;-77
2022/08/25 01:30:34;;;;;;;6.10;5.40;;;;;;;;;;6244975;23;20004;-76
2022/08/25 01:33:02;;;;;;;7.28;6.18;;;;;;;;;;6246568;23;20004;-76
2022/08/25 01:35:28;;;;;;;5.30;4.43;;;;;;;;;;6246310;23;20028;-77
2022/08/25 01:37:54;;;;;;;6.35;5.65;;;;;;;;;;6246405;23;20088;-76
2022/08/25 01:40:21;;;;;;;8.05;5.75;;;;;;;;;;6246120;23;20114;-76
2022/08/25 01:42:59;;;;;;;8.23;6.13;;;;;;;;;;6246559;22;20008;-76
2022/08/25 01:45:25;;;;;;;7.03;5.72;;;;;;;;;;6246365;22;20079;-77
2022/08/25 01:47:51;;;;;;;6.93;5.60;;;;;;;;;;6246348;23;20051;-76
2022/08/25 01:50:17;;;;;;;7.47;5.55;;;;;;;;;;6246103;23;20386;-76
2022/08/25 01:52:46;;;;;;;7.03;6.30;;;;;;;;;;6246440;22;20363;-77
2022/08/25 01:55:13;;;;;;;6.32;5.55;;;;;;;;;;6246040;23;20066;-76
2022/08/25 01:57:39;;;;;;;7.90;6.22;;;;;;;;;;6246286;23;20407;-76
2022/08/25 02:00:06;;;;;;;7.22;6.13;;;;;;;;;;6246051;23;20011;-77
2022/08/25 02:02:32;;;;;;;7.80;5.80;;;;;;;;;;6246156;22;20095;-76
2022/08/25 02:04:59;;;;;;;8.02;6.20;;;;;;;;;;6246391;23;20004;-76
2022/08/25 02:07:25;;;;;;;5.95;5.32;;;;;;;;;;6245836;23;20011;-76
2022/08/25 02:09:51;;;;;;;7.07;5.28;;;;;;;;;;6246278;23;20000;-77
2022/08/25 02:12:17;;;;;;;8.40;5.40;;;;;;;;;;6245849;23;20004;-77
2022/08/25 02:14:43;;;;;;;10.15;7.40;;;;;;;;;;6246200;23;20008;-76
2022/08/25 02:17:09;;;;;;;9.18;6.07;;;;;;;;;;6245776;23;20012;-77
2022/08/25 02:19:35;;;;;;;7.60;6.38;;;;;;;;;;6246050;23;20000;-77
2022/08/25 02:22:01;;;;;;;7.63;6.53;;;;;;;;;;6246243;23;20004;-77
2022/08/25 02:24:28;;;;;;;9.30;7.60;;;;;;;;;;6245725;23;20012;-77
2022/08/25 02:26:54;;;;;;;7.25;6.30;;;;;;;;;;6245894;23;20018;-76
2022/08/25 02:29:20;;;;;;;7.90;6.38;;;;;;;;;;6245642;23;20035;-76
2022/08/25 02:31:46;;;;;;;9.82;6.82;;;;;;;;;;6245924;23;20036;-76
2022/08/25 02:34:14;;;;;;;8.77;6.45;;;;;;;;;;6245699;23;20000;-76
2022/08/25 02:36:40;;;;;;;7.95;6.28;;;;;;;;;;6245791;22;20476;-77
2022/08/25 02:39:07;;;;;;;8.30;6.88;;;;;;;;;;6245893;23;20439;-76
2022/08/25 02:41:33;;;;;;;9.45;6.63;;;;;;;;;;6245533;23;20004;-76
2022/08/25 02:44:00;;;;;;;8.27;7.20;;;;;;;;;;6245726;22;20000;-76
2022/08/25 02:46:26;;;;;;;8.55;6.68;;;;;;;;;;6245303;23;20001;-76
2022/08/25 02:48:54;;;;;;;10.48;7.82;;;;;;;;;;6245902;23;20008;-76
2022/08/25 02:51:21;;;;;;;11.60;7.38;;;;;;;;;;6245752;22;20005;-76
2022/08/25 02:53:47;;;;;;;9.15;7.28;;;;;;;;;;6245823;23;20005;-76
2022/08/25 02:56:14;;;;;;;9.13;8.15;;;;;;;;;;6245706;23;20004;-76
2022/08/25 02:58:41;;;;;;;10.63;7.60;;;;;;;;;;6245626;23;20000;-77
2022/08/25 03:01:10;;;;;;;9.73;8.30;;;;;;;;;;6245793;23;20014;-76
2022/08/25 03:03:39;;;;;;;10.38;7.85;;;;;;;;;;6245930;22;20008;-76
2022/08/25 03:06:05;;;;;;;11.90;8.25;;;;;;;;;;6245877;22;20000;-76
2022/08/25 03:08:31;;;;;;;9.13;7.82;;;;;;;;;;6245335;23;20004;-76
2022/08/25 03:10:57;;;;;;;9.98;8.85;;;;;;;;;;6245712;23;20417;-76
2022/08/25 03:13:23;;;;;;;9.48;8.48;;;;;;;;;;6245175;23;20015;-77
2022/08/25 03:15:49;;;;;;;10.80;8.85;;;;;;;;;;6245566;23;20420;-76
2022/08/25 03:18:15;;;;;;;12.75;8.88;;;;;;;;;;6245318;23;20008;-76
2022/08/25 03:20:41;;;;;;;13.73;9.43;;;;;;;;;;6245437;23;20028;-76
2022/08/25 03:23:07;;;;;;;11.35;9.45;;;;;;;;;;6245537;23;20000;-77
2022/08/25 03:28:19;;;;;;;12.85;10.75;;;;;;;;;;6245028;23;20035;-76
2022/08/25 03:30:45;;;;;;;13.18;10.68;;;;;;;;;;6245408;23;20004;-76
2022/08/25 03:33:12;;;;;;;15.20;12.50;;;;;;;;;;6245194;23;20071;-76
2022/08/25 03:35:38;;;;;;;19.13;12.98;;;;;;;;;;6245481;23;20004;-76
2022/08/25 03:38:04;;;;;;;16.13;12.05;;;;;;;;;;6245212;23;20008;-77
2022/08/25 03:40:31;;;;;;;15.75;12.35;;;;;;;;;;6245070;23;20085;-77
2022/08/25 03:42:57;;;;;;;18.10;15.82;;;;;;;;;;6245454;22;20011;-77
2022/08/25 03:45:24;;;;;;;25.27;20.00;;;;;;;;;;6244882;23;20431;-77
2022/08/25 03:47:50;;;;;;;27.60;20.67;;;;;;;;;;6245406;23;20004;-76
2022/08/25 03:50:17;;;;;;;33.65;25.88;;;;;;;;;;6244978;23;20032;-76
2022/08/25 03:52:44;;;;;;;36.20;29.30;;;;;;;;;;6245180;23;20000;-77
2022/08/25 03:55:12;;;;;;;34.65;28.88;;;;;;;;;;6244503;23;20062;-76
2022/08/25 03:57:39;;;;;;;37.30;28.50;;;;;;;;;;6245205;22;20008;-76
2022/08/25 04:00:06;;;;;;;41.55;30.60;;;;;;;;;;6244135;23;20109;-76
2022/08/25 04:02:32;;;;;;;30.50;26.45;;;;;;;;;;6244105;22;20019;-77
2022/08/25 04:04:59;;;;;;;29.92;22.75;;;;;;;;;;6245186;23;20008;-76
2022/08/25 04:07:26;;;;;;;28.08;23.25;;;;;;;;;;6243795;22;20000;-77
2022/08/25 04:09:53;;;;;;;30.48;23.70;;;;;;;;;;6245201;23;20004;-77
2022/08/25 04:12:19;;;;;;;35.90;26.90;;;;;;;;;;6244376;23;20004;-77
2022/08/25 04:14:45;;;;;;;37.13;28.88;;;;;;;;;;6244893;23;20371;-77
2022/08/25 04:17:11;;;;;;;41.63;30.98;;;;;;;;;;6244840;23;20015;-76
2022/08/25 04:19:38;;;;;;;38.80;30.63;;;;;;;;;;6246523;23;20030;-76
2022/08/25 04:22:04;;;;;;;36.80;28.95;;;;;;;;;;6244867;23;20127;-77
2022/08/25 04:24:30;;;;;;;40.55;31.50;;;;;;;;;;6244922;23;20005;-78
2022/08/25 04:26:56;;;;;;;43.42;35.55;;;;;;;;;;6245839;23;20039;-78
2022/08/25 04:29:23;;;;;;;44.97;36.08;;;;;;;;;;6244867;23;20012;-78
2022/08/25 04:31:49;;;;;;;42.70;33.80;;;;;;;;;;6245096;23;20446;-78
2022/08/25 04:34:19;;;;;;;45.45;37.38;;;;;;;;;;6245114;22;20004;-78
2022/08/25 04:36:45;;;;;;;40.40;32.20;;;;;;;;;;6244824;23;20057;-78
2022/08/25 04:39:12;;;;;;;37.88;32.65;;;;;;;;;;6245073;23;20071;-78
2022/08/25 04:41:38;;;;;;;36.95;30.33;;;;;;;;;;6244658;23;20007;-78
2022/08/25 04:44:05;;;;;;;36.80;29.40;;;;;;;;;;6244916;23;20027;-77
2022/08/25 04:46:32;;;;;;;37.13;29.73;;;;;;;;;;6244307;22;20008;-78
2022/08/25 04:48:58;;;;;;;37.70;30.30;;;;;;;;;;6244240;23;20000;-78
2022/08/25 04:51:29;;;;;;;38.00;30.30;;;;;;;;;;6244394;23;20491;-78
2022/08/25 04:53:58;;;;;;;42.35;30.88;;;;;;;;;;6244503;23;20004;-78
2022/08/25 04:56:24;;;;;;;35.25;28.38;;;;;;;;;;6243134;23;20000;-77
2022/08/25 04:58:51;;;;;;;35.35;28.92;;;;;;;;;;6245032;22;20012;-78
2022/08/25 05:01:18;;;;;;;33.53;26.95;;;;;;;;;;6244663;23;20008;-78
2022/08/25 05:03:45;;;;;;;34.17;27.73;;;;;;;;;;6244606;23;20006;-77
2022/08/25 05:06:12;;;;;;;34.95;28.48;;;;;;;;;;6245989;23;20014;-77
2022/08/25 05:08:38;;;;;;;37.35;27.60;;;;;;;;;;6246862;23;20000;-78
2022/08/25 05:11:08;;;;;;;36.95;28.50;;;;;;;;;;6246977;22;20004;-77
2022/08/25 05:13:34;;;;;;;39.63;29.20;;;;;;;;;;6246473;23;20000;-78
2022/08/25 05:16:00;;;;;;;37.05;29.67;;;;;;;;;;6246916;23;20004;-78
2022/08/25 05:18:28;;;;;;;41.15;29.02;;;;;;;;;;6246271;23;20008;-77
2022/08/25 05:20:55;;;;;;;39.97;29.27;;;;;;;;;;6246789;23;20014;-78
2022/08/25 05:23:22;;;;;;;37.88;29.05;;;;;;;;;;6245529;23;20000;-78
2022/08/25 05:25:50;;;;;;;39.65;31.55;;;;;;;;;;6244281;23;20387;-77
2022/08/25 05:28:16;;;;;;;38.75;30.52;;;;;;;;;;6244111;23;20016;-76
2022/08/25 05:30:43;;;;;;;38.42;30.23;;;;;;;;;;6236749;23;20390;-77
2022/08/25 05:33:10;;;;;;;39.95;31.85;;;;;;;;;;6244994;22;20014;-80
2022/08/25 05:35:36;;;;;;;39.42;31.77;;;;;;;;;;6244007;23;20050;-77
2022/08/25 05:38:02;;;;;;;36.88;32.00;;;;;;;;;;6244060;23;20447;-77
2022/08/25 05:40:29;;;;;;;42.15;32.55;;;;;;;;;;6244799;22;20071;-77
2022/08/25 05:42:55;;;;;;;39.30;31.23;;;;;;;;;;6244586;23;20004;-77
2022/08/25 05:45:21;;;;;;;38.70;31.73;;;;;;;;;;6244792;23;20324;-76
2022/08/25 05:47:48;;;;;;;41.53;32.13;;;;;;;;;;6243022;23;20441;-77
2022/08/25 05:50:14;;;;;;;39.42;33.83;;;;;;;;;;6243816;23;20000;-76
2022/08/25 05:52:40;;;;;;;41.10;32.40;;;;;;;;;;6242898;23;20004;-76
2022/08/25 05:55:07;;;;;;;43.33;33.10;;;;;;;;;;6243903;23;20000;-78
2022/08/25 05:57:34;;;;;;;38.70;29.00;;;;;;;;;;6244134;23;20447;-79
2022/08/25 06:00:00;;;;;;;40.55;32.10;;;;;;;;;;6244428;23;20004;-77
2022/08/25 06:05:13;;;;;;;38.50;29.48;;;;;;;;;;6244829;23;20450;-77
2022/08/25 06:07:39;;;;;;;37.88;29.63;;;;;;;;;;6244514;22;20083;-76
2022/08/25 06:10:06;;;;;;;44.35;35.85;;;;;;;;;;6244039;23;20058;-77
2022/08/25 06:12:35;;;;;;;40.15;29.42;;;;;;;;;;6244348;23;20015;-76
2022/08/25 06:15:02;;;;;;;41.97;31.20;;;;;;;;;;6243977;22;20000;-78
2022/08/25 06:17:28;;;;;;;38.55;29.80;;;;;;;;;;6244035;22;20056;-76
2022/08/25 06:19:54;;;;;;;37.17;30.17;;;;;;;;;;6243855;23;20011;-76
2022/08/25 06:22:21;;;;;;;38.50;31.00;;;;;;;;;;6244171;23;20004;-75
2022/08/25 06:24:47;;;;;;;34.65;28.52;;;;;;;;;;6244485;22;20008;-76
2022/08/25 06:27:13;;;;;;;37.05;28.38;;;;;;;;;;6244280;22;20028;-77
2022/08/25 06:29:40;;;;;;;37.58;29.45;;;;;;;;;;6243559;23;20004;-76
2022/08/25 06:32:06;;;;;;;37.75;29.88;;;;;;;;;;6242715;23;20012;-75
2022/08/25 06:34:32;;;;;;;35.40;28.13;;;;;;;;;;6243452;23;20016;-77
2022/08/25 06:36:58;;;;;;;34.90;27.17;;;;;;;;;;6244082;22;20012;-76
2022/08/25 06:39:24;;;;;;;33.38;27.10;;;;;;;;;;6244115;23;20005;-75
2022/08/25 06:42:09;;;;;;;32.05;26.00;;;;;;;;;;6244488;23;20319;-75
2022/08/25 06:44:35;;;;;;;33.70;25.40;;;;;;;;;;6243492;23;20008;-76
2022/08/25 06:47:01;;;;;;;35.20;25.75;;;;;;;;;;6243752;23;20035;-78
2022/08/25 06:49:27;;;;;;;33.08;27.48;;;;;;;;;;6244482;23;20011;-76
2022/08/25 06:51:53;;;;;;;29.50;22.67;;;;;;;;;;6242660;23;20082;-78
2022/08/25 06:54:20;;;;;;;31.58;23.23;;;;;;;;;;6243524;23;20015;-75
2022/08/25 06:56:46;;;;;;;28.13;21.88;;;;;;;;;;6240181;23;20039;-76
2022/08/25 06:59:12;;;;;;;31.88;22.63;;;;;;;;;;6239761;23;20065;-76
2022/08/25 07:01:38;;;;;;;28.63;22.52;;;;;;;;;;6243010;23;20031;-76
2022/08/25 07:04:05;;;;;;;27.02;21.80;;;;;;;;;;6242908;23;20007;-76
2022/08/25 07:06:34;;;;;;;31.27;23.35;;;;;;;;;;6243041;23;20042;-76
2022/08/25 07:09:00;;;;;;;29.52;22.92;;;;;;;;;;6241010;22;20328;-76
2022/08/25 07:11:26;;;;;;;25.88;20.77;;;;;;;;;;6243587;23;20004;-76
2022/08/25 07:13:52;;;;;;;30.92;21.73;;;;;;;;;;6236119;23;20000;-76
2022/08/25 07:16:19;;;;;;;33.63;27.92;;;;;;;;;;6242716;23;20012;-75
2022/08/25 07:18:45;;;;;;;34.83;25.13;;;;;;;;;;6243182;23;20011;-75
2022/08/25 07:21:12;;;;;;;29.90;23.10;;;;;;;;;;6242331;23;20087;-76
2022/08/25 07:23:39;;;;;;;32.05;24.50;;;;;;;;;;6242147;23;20370;-76
2022/08/25 07:26:16;;;;;;;30.25;25.33;;;;;;;;;;6241356;23;20004;-76
2022/08/25 07:28:42;;;;;;;29.02;23.10;;;;;;;;;;6243370;23;20062;-76
2022/08/25 07:31:09;;;;;;;31.85;23.98;;;;;;;;;;6243491;23;20011;-76
2022/08/25 07:33:35;;;;;;;27.42;24.15;;;;;;;;;;6242691;23;20004;-77
2022/08/25 07:36:01;;;;;;;29.42;23.20;;;;;;;;;;6241936;22;20324;-76
2022/08/25 07:38:28;;;;;;;34.35;23.67;;;;;;;;;;6241850;23;20441;-76
2022/08/25 07:41:00;;;;;;;27.13;22.45;;;;;;;;;;6243576;22;20008;-76
2022/08/25 07:43:26;;;;;;;31.90;22.83;;;;;;;;;;6242572;23;20458;-77
2022/08/25 07:45:52;;;;;;;30.50;22.13;;;;;;;;;;6242248;23;20450;-76
2022/08/25 07:48:19;;;;;;;26.77;22.67;;;;;;;;;;6242866;23;20007;-76
2022/08/25 07:50:46;;;;;;;27.17;23.20;;;;;;;;;;6243299;22;20027;-74
2022/08/25 07:53:13;;;;;;;29.48;21.67;;;;;;;;;;6241779;23;20475;-76
2022/08/25 07:55:40;;;;;;;30.63;22.70;;;;;;;;;;6242962;23;20086;-77
2022/08/25 07:58:07;;;;;;;30.05;21.75;;;;;;;;;;6243810;22;20091;-80
2022/08/25 08:00:35;;;;;;;27.83;22.02;;;;;;;;;;6241387;23;20382;-73
2022/08/25 08:03:02;;;;;;;29.40;21.63;;;;;;;;;;6243460;22;20073;-76
2022/08/25 08:05:28;;;;;;;28.15;22.52;;;;;;;;;;6243413;23;20058;-76
2022/08/25 08:07:55;;;;;;;27.33;21.55;;;;;;;;;;6243451;23;20000;-75
2022/08/25 08:10:22;;;;;;;29.35;22.88;;;;;;;;;;6242639;23;20019;-75
2022/08/25 08:12:48;;;;;;;26.63;20.73;;;;;;;;;;6242802;22;20012;-76
2022/08/25 08:15:14;;;;;;;28.25;21.58;;;;;;;;;;6243673;22;20005;-77
2022/08/25 08:17:41;;;;;;;27.40;19.95;;;;;;;;;;6239691;23;20020;-79
2022/08/25 08:20:08;;;;;;;26.63;22.38;;;;;;;;;;6241822;23;20038;-76
2022/08/25 08:22:35;;;;;;;28.35;22.08;;;;;;;;;;6242692;23;20000;-77
2022/08/25 08:25:02;;;;;;;30.15;21.83;;;;;;;;;;6242220;23;20481;-76
2022/08/25 08:27:28;;;;;;;27.60;21.00;;;;;;;;;;6241620;23;20027;-77
2022/08/25 08:29:54;;;;;;;29.73;23.13;;;;;;;;;;6240945;23;20451;-76
2022/08/25 08:32:20;;;;;;;28.77;22.33;;;;;;;;;;6241958;23;20015;-76
2022/08/25 08:34:47;;;;;;;27.70;22.13;;;;;;;;;;6241249;23;20051;-75
2022/08/25 08:37:14;;;;;;;28.10;21.55;;;;;;;;;;6242489;22;20016;-78
2022/08/25 08:39:40;;;;;;;30.42;21.60;;;;;;;;;;6242782;22;20011;-76
2022/08/25 08:42:25;;;;;;;29.40;20.63;;;;;;;;;;6243094;23;20026;-75
2022/08/25 08:44:59;;;;;;;26.77;22.00;;;;;;;;;;6241974;23;20005;-77
2022/08/25 08:47:44;;;;;;;26.20;21.13;;;;;;;;;;6242825;22;20374;-77
2022/08/25 08:50:29;;;;;;;31.27;19.40;;;;;;;;;;6242557;23;20004;-76
2022/08/25 08:52:55;;;;;;;29.02;20.58;;;;;;;;;;6243503;23;20360;-75
2022/08/25 08:55:30;;;;;;;28.05;20.33;;;;;;;;;;6243185;23;20000;-75
2022/08/25 08:57:57;;;;;;;25.15;19.92;;;;;;;;;;6243174;23;20455;-76
2022/08/25 09:00:24;;;;;;;26.40;20.83;;;;;;;;;;6242419;23;20339;-76
2022/08/25 09:02:50;;;;;;;27.00;22.55;;;;;;;;;;6241564;23;20097;-80
2022/08/25 09:05:20;;;;;;;26.48;19.80;;;;;;;;;;6243572;23;20011;-77
2022/08/25 09:07:54;;;;;;;24.95;20.73;;;;;;;;;;6242902;23;20031;-78
2022/08/25 09:10:23;;;;;;;25.15;20.30;;;;;;;;;;6241573;23;20485;-75
2022/08/25 09:13:21;;;;;;;28.05;21.05;;;;;;;;;;6242674;22;20070;-77
2022/08/25 09:18:58;;;;;;;26.35;20.50;;;;;;;;;;6240291;23;20042;-74
2022/08/25 09:21:27;;;;;;;23.50;19.63;;;;;;;;;;6242871;23;20000;-76
2022/08/25 09:24:07;;;;;;;24.92;20.58;;;;;;;;;;6242562;23;20422;-75
2022/08/25 09:26:37;;;;;;;24.98;18.48;;;;;;;;;;6242442;23;20020;-76
2022/08/25 09:29:12;;;;;;;22.23;18.42;;;;;;;;;;6243055;23;20087;-74
2022/08/25 09:31:39;;;;;;;27.20;18.95;;;;;;;;;;6241972;23;20011;-76
2022/08/25 09:34:07;;;;;;;25.77;19.30;;;;;;;;;;6241305;23;20000;-75
2022/08/25 09:36:34;;;;;;;23.60;19.33;;;;;;;;;;6239665;23;20012;-77
2022/08/25 09:39:00;;;;;;;23.55;18.30;;;;;;;;;;6242063;22;20610;-78
2022/08/25 09:41:45;;;;;;;26.77;19.70;;;;;;;;;;6242678;23;20004;-76
2022/08/25 09:44:31;;;;;;;21.00;17.10;;;;;;;;;;6243000;23;20008;-75
2022/08/25 09:47:02;;;;;;;21.23;17.75;;;;;;;;;;6240827;23;20531;-76
2022/08/25 09:49:36;;;;;;;21.45;17.42;;;;;;;;;;6241135;23;20008;-75
2022/08/25 09:52:21;;;;;;;21.60;18.02;;;;;;;;;;6241930;23;20012;-75
2022/08/25 09:54:49;;;;;;;24.25;19.25;;;;;;;;;;6244170;23;20074;-76
2022/08/25 09:57:33;;;;;;;24.27;19.42;;;;;;;;;;6244056;22;20023;-79
2022/08/25 10:00:20;;;;;;;20.33;17.77;;;;;;;;;;6243319;23;20291;-79
2022/08/25 10:03:05;;;;;;;25.83;17.77;;;;;;;;;;6227128;22;20074;-75
2022/08/25 10:05:34;;;;;;;19.75;16.20;;;;;;;;;;6242831;22;20004;-77
2022/08/25 10:08:02;;;;;;;22.38;16.55;;;;;;;;;;6243663;22;20088;-76
2022/08/25 10:10:44;;;;;;;25.25;17.33;;;;;;;;;;6243195;23;20004;-75
2022/08/25 10:13:33;;;;;;;22.33;17.27;;;;;;;;;;6243147;23;20004;-76
2022/08/25 10:16:07;;;;;;;23.73;17.27;;;;;;;;;;6185696;22;20012;-77
2022/08/25 10:18:33;;;;;;;23.00;15.52;;;;;;;;;;6242896;23;20451;-79
2022/08/25 10:21:08;;;;;;;20.42;14.48;;;;;;;;;;6242934;23;20219;-80
2022/08/25 10:23:36;;;;;;;17.65;14.32;;;;;;;;;;6243452;23;20305;-77
2022/08/25 10:26:04;;;;;;;18.98;14.63;;;;;;;;;;6241724;22;20008;-75
2022/08/25 10:28:31;;;;;;;20.52;15.25;;;;;;;;;;6243998;22;20602;-76
2022/08/25 10:31:01;;;;;;;23.77;15.23;;;;;;;;;;6240135;23;20463;-76
2022/08/25 10:33:34;;;;;;;24.00;16.92;;;;;;;;;;6244084;22;20004;-76
2022/08/25 10:36:19;;;;;;;24.02;14.68;;;;;;;;;;6240650;23;20023;-76
2022/08/25 10:39:06;;;;;;;20.80;14.98;;;;;;;;;;6242091;23;20015;-75
2022/08/25 10:41:49;;;;;;;23.92;13.77;;;;;;;;;;6242423;22;20375;-77
2022/08/25 10:47:30;;;;;;;21.55;14.50;;;;;;;;;;6242699;23;20014;-75
2022/08/25 10:50:03;;;;;;;27.35;15.45;;;;;;;;;;6242880;23;20014;-76
2022/08/25 10:52:36;;;;;;;20.48;12.80;;;;;;;;;;6242576;22;20028;-75
2022/08/25 10:55:31;;;;;;;22.52;14.20;;;;;;;;;;6242996;23;20019;-75
2022/08/25 10:58:03;;;;;;;21.95;14.45;;;;;;;;;;6224154;22;20043;-75
2022/08/25 11:00:43;;;;;;;18.65;13.90;;;;;;;;;;6243414;23;20004;-77
2022/08/25 11:03:10;;;;;;;17.30;13.50;;;;;;;;;;6242282;23;20004;-76
2022/08/25 11:05:55;;;;;;;22.92;13.70;;;;;;;;;;6243365;22;20012;-77
2022/08/25 11:08:30;;;;;;;22.42;15.25;;;;;;;;;;6243686;23;20004;-74
2022/08/25 11:10:59;;;;;;;18.25;13.60;;;;;;;;;;6243311;23;20011;-76
2022/08/25 11:13:38;;;;;;;19.00;14.63;;;;;;;;;;6243120;22;20102;-76
2022/08/25 11:16:13;;;;;;;17.35;14.27;;;;;;;;;;6242401;23;20305;-77
2022/08/25 11:19:06;;;;;;;20.67;14.95;;;;;;;;;;6242388;23;20012;-76
2022/08/25 11:21:52;;;;;;;22.90;14.68;;;;;;;;;;6239757;23;20746;-79
2022/08/25 11:24:37;;;;;;;18.58;13.23;;;;;;;;;;6242488;23;20004;-78
2022/08/25 11:27:04;;;;;;;20.70;13.52;;;;;;;;;;6243111;23;20440;-76
2022/08/25 11:29:32;;;;;;;21.13;13.70;;;;;;;;;;6243064;23;20117;-77
2022/08/25 11:32:00;;;;;;;21.77;14.10;;;;;;;;;;6242346;22;20011;-77
2022/08/25 11:34:33;;;;;;;25.15;12.50;;;;;;;;;;6243201;22;20004;-77
2022/08/25 11:37:07;;;;;;;16.87;14.13;;;;;;;;;;6242821;23;20004;-77
2022/08/25 11:39:33;;;;;;;18.00;12.60;;;;;;;;;;6243616;22;20222;-75
2022/08/25 11:42:05;;;;;;;21.40;11.85;;;;;;;;;;6244755;23;20084;-79
2022/08/25 11:44:44;;;;;;;19.33;12.80;;;;;;;;;;6243936;22;20741;-76
2022/08/25 11:47:29;;;;;;;22.27;11.95;;;;;;;;;;6243800;22;20011;-81
2022/08/25 11:50:00;;;;;;;18.27;12.50;;;;;;;;;;6243074;23;19996;-78
2022/08/25 11:52:33;;;;;;;19.73;11.98;;;;;;;;;;6241556;23;20011;-75
2022/08/25 11:55:13;;;;;;;21.73;12.43;;;;;;;;;;6242742;23;20008;-76
2022/08/25 11:57:39;;;;;;;21.52;12.95;;;;;;;;;;6243473;23;20038;-79
2022/08/25 12:00:09;;;;;;;20.17;13.57;;;;;;;;;;6243327;23;20004;-76
2022/08/25 12:02:47;;;;;;;20.25;12.95;;;;;;;;;;6242647;22;20014;-75
2022/08/25 12:05:16;;;;;;;18.25;12.38;;;;;;;;;;6243721;23;20083;-77
2022/08/25 12:10:55;;;;;;;18.00;13.23;;;;;;;;;;6243062;23;20096;-78
2022/08/25 12:13:25;;;;;;;22.48;14.65;;;;;;;;;;6242974;22;20007;-75
2022/08/25 12:15:51;;;;;;;22.38;13.65;;;;;;;;;;6243544;22;20078;-75
2022/08/25 12:18:19;;;;;;;21.77;13.50;;;;;;;;;;6241955;23;20019;-76
2022/08/25 12:23:42;;;;;;;27.00;13.33;;;;;;;;;;6243077;23;20404;-75
2022/08/25 12:26:08;;;;;;;25.27;13.50;;;;;;;;;;6243009;23;20004;-76
2022/08/25 12:28:53;;;;;;;23.92;13.45;;;;;;;;;;6243571;23;20008;-75
2022/08/25 12:31:38;;;;;;;22.83;13.18;;;;;;;;;;6242890;23;20050;-76
2022/08/25 12:34:24;;;;;;;24.10;13.07;;;;;;;;;;6243328;23;20008;-75
2022/08/25 12:37:09;;;;;;;27.02;14.63;;;;;;;;;;6227713;22;20344;-76
2022/08/25 12:39:36;;;;;;;21.20;14.00;;;;;;;;;;6243337;23;20423;-76
2022/08/25 12:42:07;;;;;;;26.20;14.20;;;;;;;;;;6242422;23;20000;-76
2022/08/25 12:44:39;;;;;;;23.17;13.48;;;;;;;;;;6241133;23;20011;-73
2022/08/25 12:47:07;;;;;;;25.65;13.45;;;;;;;;;;6244173;23;20032;-75
2022/08/25 12:49:34;;;;;;;23.30;13.55;;;;;;;;;;6244983;23;20122;-75
2022/08/25 12:52:19;;;;;;;23.25;13.20;;;;;;;;;;6243935;22;20620;-76
2022/08/25 12:54:51;;;;;;;22.52;13.85;;;;;;;;;;6243424;23;20050;-75
2022/08/25 12:57:36;;;;;;;29.27;18.25;;;;;;;;;;6243297;23;20091;-74
2022/08/25 13:00:22;;;;;;;27.00;12.05;;;;;;;;;;6243697;23;20012;-74
2022/08/25 13:02:51;;;;;;;21.83;11.82;;;;;;;;;;6244691;22;20001;-75
2022/08/25 13:05:17;;;;;;;23.38;14.10;;;;;;;;;;6244711;22;20015;-75
2022/08/25 13:07:53;;;;;;;24.77;12.65;;;;;;;;;;6244558;22;20008;-76
2022/08/25 13:10:25;;;;;;;27.63;12.43;;;;;;;;;;6244496;22;20008;-76
2022/08/25 13:13:00;;;;;;;24.42;12.32;;;;;;;;;;6245146;23;20027;-75
2022/08/25 13:15:34;;;;;;;20.02;11.98;;;;;;;;;;6243925;23;20371;-77
2022/08/25 13:18:00;;;;;;;;;;;;;;;;;;6245572;23;20018;-75
2022/08/25 13:23:11;;;;;;;22.77;13.48;;;;;;;;;;6244497;23;20019;-76
2022/08/25 13:25:46;;;;;;;25.55;13.05;;;;;;;;;;6244590;23;20058;-76
2022/08/25 13:28:18;;;;;;;21.45;11.15;;;;;;;;;;6246183;23;20020;-77
2022/08/25 13:30:44;;;;;;;21.35;10.82;;;;;;;;;;6245537;23;20024;-75
2022/08/25 13:33:20;;;;;;;24.35;11.32;;;;;;;;;;6246723;23;20118;-76
2022/08/25 13:37:26;;;;;;;24.55;10.65;;;;;;;;;;6247190;23;20031;-75
2022/08/25 13:38:36;;;;;;;21.73;11.10;;;;;;;;;;6246394;23;20027;-75
2022/08/25 13:41:03;;;;;;;21.73;11.23;;;;;;;;;;6245789;23;20000;-76
2022/08/25 13:43:29;;;;;;;24.85;10.43;;;;;;;;;;6246014;23;20430;-76
2022/08/25 13:45:55;;;;;;;20.45;10.48;;;;;;;;;;6246309;23;20035;-76
2022/08/25 13:48:32;;;;;;;20.13;9.73;;;;;;;;;;6245386;23;20000;-76
2022/08/25 13:51:17;;;;;;;20.80;10.07;;;;;;;;;;6246125;23;20440;-75
2022/08/25 13:53:48;;;;;;;25.80;10.35;;;;;;;;;;6246431;22;20071;-75
2022/08/25 13:56:22;;;;;;;20.20;11.05;;;;;;;;;;6246584;23;20004;-76
2022/08/25 13:58:48;;;;;;;24.60;11.15;;;;;;;;;;6245824;23;20058;-77
2022/08/25 14:01:46;;;;;;;26.33;9.23;;;;;;;;;;6246095;23;20001;-75
2022/08/25 14:04:31;;;;;;;17.73;8.02;;;;;;;;;;6194826;22;20004;-76
2022/08/25 14:07:14;;;;;;;25.90;9.35;;;;;;;;;;6245086;23;20000;-75
2022/08/25 14:09:40;;;;;;;20.45;10.40;;;;;;;;;;6246020;23;20004;-75
2022/08/25 14:12:06;;;;;;;18.90;8.70;;;;;;;;;;6246446;23;20363;-74
2022/08/25 14:14:34;;;;;;;16.95;7.60;;;;;;;;;;6244397;23;20004;-77
2022/08/25 14:17:06;;;;;;;14.18;5.07;;;;;;;;;;6246335;22;20084;-76
2022/08/25 14:19:33;;;;;;;16.90;5.10;;;;;;;;;;6245940;23;20061;-76
2022/08/25 14:22:00;;;;;;;14.93;4.20;;;;;;;;;;6245690;22;20057;-76
2022/08/25 14:24:27;;;;;;;14.90;4.20;;;;;;;;;;6245966;22;20004;-75
2022/08/25 14:26:53;;;;;;;14.68;4.30;;;;;;;;;;6246219;23;20009;-75
2022/08/25 14:29:20;;;;;;;15.73;4.00;;;;;;;;;;6245556;23;20000;-75
2022/08/25 14:31:46;;;;;;;14.05;4.32;;;;;;;;;;6245517;22;20004;-74
2022/08/25 14:34:17;;;;;;;15.10;4.57;;;;;;;;;;6246013;23;20007;-77
2022/08/25 14:36:43;;;;;;;17.33;4.72;;;;;;;;;;6245271;23;20036;-76
2022/08/25 14:39:10;;;;;;;16.05;4.38;;;;;;;;;;6245534;23;20008;-75
2022/08/25 14:41:39;;;;;;;17.92;8.23;;;;;;;;;;6245918;23;20000;-75
2022/08/25 14:44:06;;;;;;;20.90;10.57;;;;;;;;;;6245338;22;20006;-75
2022/08/25 14:46:35;;;;;;;17.20;5.38;;;;;;;;;;6245152;23;20071;-75
2022/08/25 14:49:02;;;;;;;17.50;4.97;;;;;;;;;;6246216;22;20004;-76
2022/08/25 14:51:31;;;;;;;18.17;5.28;;;;;;;;;;6245399;23;20419;-76
2022/08/25 14:53:59;;;;;;;17.17;3.78;;;;;;;;;;6245191;22;19997;-75
2022/08/25 14:56:25;;;;;;;17.92;4.93;;;;;;;;;;6244974;23;20000;-74
2022/08/25 14:58:51;;;;;;;15.07;4.68;;;;;;;;;;6244535;23;20014;-76